createdAt,value
2019-04-10T00:00:26.756Z,8.13
2019-04-10T00:02:54.123Z,7.37
2019-04-10T00:05:21.526Z,7.67
2019-04-10T00:07:49.944Z,8.40
2019-04-10T00:10:17.395Z,7.93
2019-04-10T00:12:45.572Z,8.53
2019-04-10T00:15:15.726Z,7.67
2019-04-10T00:17:42.944Z,7.97
2019-04-10T00:20:11.949Z,7.93
2019-04-10T00:22:39.436Z,7.60
2019-04-10T00:25:06.948Z,9.33
2019-04-10T00:27:34.684Z,6.90
2019-04-10T00:30:02.923Z,8.87
2019-04-10T00:32:30.379Z,9.37
2019-04-10T00:34:58.188Z,7.70
2019-04-10T00:37:28.695Z,8.50
2019-04-10T00:39:55.075Z,8.07
2019-04-10T00:42:23.107Z,8.17
2019-04-10T00:44:52.850Z,8.03
2019-04-10T00:47:21.144Z,8.47
2019-04-10T00:49:48.744Z,8.33
2019-04-10T00:52:17.951Z,8.97
2019-04-10T00:54:45.330Z,8.50
2019-04-10T00:57:12.891Z,7.97
2019-04-10T00:59:40.286Z,8.17
2019-04-10T01:02:08.047Z,8.00
2019-04-10T01:04:36.175Z,8.00
2019-04-10T01:07:04.297Z,8.47
2019-04-10T01:09:31.820Z,7.77
2019-04-10T01:11:59.386Z,7.90
2019-04-10T01:14:26.828Z,8.73
2019-04-10T01:16:54.274Z,8.00
2019-04-10T01:19:21.741Z,8.10
2019-04-10T01:21:49.190Z,8.77
2019-04-10T01:24:17.485Z,8.50
2019-04-10T01:26:45.493Z,7.90
2019-04-10T01:29:13.414Z,8.30
2019-04-10T01:31:41.453Z,8.80
2019-04-10T01:34:09.484Z,8.40
2019-04-10T01:36:37.506Z,9.03
2019-04-10T01:39:08.700Z,7.97
2019-04-10T01:41:36.331Z,7.67
2019-04-10T01:44:03.757Z,8.63
2019-04-10T01:46:33.588Z,9.10
2019-04-10T01:49:00.404Z,8.43
2019-04-10T01:51:27.771Z,8.67
2019-04-10T01:53:55.237Z,8.00
2019-04-10T01:56:31.130Z,8.27
2019-04-10T01:58:52.032Z,8.40
2019-04-10T02:01:26.218Z,8.07
2019-04-10T02:03:54.273Z,8.13
2019-04-10T02:06:21.837Z,8.43
2019-04-10T02:08:49.991Z,8.50
2019-04-10T02:11:17.564Z,7.63
2019-04-10T02:13:44.901Z,8.97
2019-04-10T02:16:12.522Z,9.23
2019-04-10T02:18:39.921Z,8.40
2019-04-10T02:21:07.503Z,9.10
2019-04-10T02:23:35.001Z,9.17
2019-04-10T02:26:03.265Z,9.37
2019-04-10T02:28:31.187Z,9.27
2019-04-10T02:31:02.869Z,7.50
2019-04-10T02:33:31.454Z,9.23
2019-04-10T02:35:59.181Z,9.80
2019-04-10T02:38:44.592Z,8.50
2019-04-10T02:40:57.526Z,10.07
2019-04-10T02:43:25.450Z,8.67
2019-04-10T02:45:55.797Z,9.50
2019-04-10T02:48:23.349Z,9.27
2019-04-10T02:50:51.379Z,10.30
2019-04-10T02:53:19.552Z,8.87
2019-04-10T02:55:47.553Z,9.43
2019-04-10T02:58:16.024Z,10.03
2019-04-10T03:00:44.170Z,8.63
2019-04-10T03:03:12.047Z,9.00
2019-04-10T03:05:40.813Z,8.53
2019-04-10T03:08:08.954Z,9.23
2019-04-10T03:10:44.146Z,10.20
2019-04-10T03:13:06.823Z,10.07
2019-04-10T03:15:35.746Z,9.77
2019-04-10T03:18:04.279Z,9.37
2019-04-10T03:20:32.178Z,10.33
2019-04-10T03:23:00.887Z,9.70
2019-04-10T03:25:30.580Z,9.53
2019-04-10T03:27:58.712Z,9.67
2019-04-10T03:30:27.381Z,9.47
2019-04-10T03:33:21.585Z,8.83
2019-04-10T03:35:49.465Z,9.00
2019-04-10T03:38:18.172Z,9.33
2019-04-10T03:40:45.919Z,9.50
2019-04-10T03:43:13.980Z,9.80
2019-04-10T03:45:41.527Z,8.77
2019-04-10T03:48:08.906Z,10.90
2019-04-10T03:50:57.688Z,10.07
2019-04-10T03:53:26.438Z,9.23
2019-04-10T03:55:53.950Z,9.43
2019-04-10T03:58:21.409Z,8.67
2019-04-10T04:00:50.305Z,8.97
2019-04-10T04:03:18.359Z,8.80
2019-04-10T04:05:46.555Z,9.03
2019-04-10T04:08:15.159Z,8.97
2019-04-10T04:10:42.724Z,8.37
2019-04-10T04:13:11.076Z,8.80
2019-04-10T04:15:38.685Z,8.33
2019-04-10T04:18:06.052Z,8.13
2019-04-10T04:20:33.488Z,9.63
2019-04-10T04:23:01.392Z,8.70
2019-04-10T04:25:28.972Z,9.07
2019-04-10T04:27:56.333Z,8.20
2019-04-10T04:30:24.671Z,8.07
2019-04-10T04:32:52.166Z,7.83
2019-04-10T04:35:19.975Z,8.83
2019-04-10T04:37:48.429Z,8.87
2019-04-10T04:40:15.904Z,8.60
2019-04-10T04:42:43.246Z,8.37
2019-04-10T04:45:10.823Z,7.67
2019-04-10T04:47:39.689Z,7.30
2019-04-10T04:50:07.721Z,7.27
2019-04-10T04:52:35.325Z,7.07
2019-04-10T04:55:03.867Z,7.37
2019-04-10T04:57:34.183Z,8.23
2019-04-10T05:00:01.119Z,7.73
2019-04-10T05:02:28.716Z,8.10
2019-04-10T05:04:56.155Z,7.00
2019-04-10T05:07:24.642Z,7.40
2019-04-10T05:09:52.498Z,8.20
2019-04-10T05:12:20.296Z,7.47
2019-04-10T05:14:48.159Z,7.43
2019-04-10T05:17:17.198Z,7.57
2019-04-10T05:19:44.926Z,7.40
2019-04-10T05:22:12.400Z,7.67
2019-04-10T05:24:40.440Z,7.43
2019-04-10T05:27:07.908Z,7.60
2019-04-10T05:29:35.246Z,8.00
2019-04-10T05:32:03.086Z,7.13
2019-04-10T05:34:30.672Z,7.80
2019-04-10T05:36:58.841Z,7.07
2019-04-10T05:39:30.392Z,6.60
2019-04-10T05:41:57.426Z,6.93
2019-04-10T05:44:25.525Z,7.00
2019-04-10T05:46:53.079Z,7.50
2019-04-10T05:49:20.698Z,9.13
2019-04-10T05:51:48.280Z,6.93
2019-04-10T05:54:15.698Z,6.50
2019-04-10T05:56:43.095Z,7.30
2019-04-10T05:59:10.866Z,6.63
2019-04-10T06:01:41.239Z,7.77
2019-04-10T06:04:09.273Z,7.30
2019-04-10T06:06:36.869Z,7.40
2019-04-10T06:09:12.225Z,8.47
2019-04-10T06:11:42.394Z,8.13
2019-04-10T06:14:10.063Z,7.23
2019-04-10T06:16:37.569Z,7.70
2019-04-10T06:19:05.330Z,8.03
2019-04-10T06:21:32.695Z,7.43
2019-04-10T06:24:02.196Z,8.03
2019-04-10T06:26:30.007Z,7.23
2019-04-10T06:28:57.528Z,7.37
2019-04-10T06:31:25.043Z,8.37
2019-04-10T06:33:52.769Z,7.47
2019-04-10T06:36:21.480Z,7.57
2019-04-10T06:38:49.003Z,7.83
2019-04-10T06:41:17.673Z,8.23
2019-04-10T06:43:45.712Z,7.90
2019-04-10T06:46:13.108Z,8.33
2019-04-10T06:48:40.623Z,7.93
2019-04-10T06:51:08.221Z,7.13
2019-04-10T06:53:35.657Z,7.60
2019-04-10T06:56:03.044Z,7.40
2019-04-10T06:58:30.476Z,8.07
2019-04-10T07:00:58.082Z,7.37
2019-04-10T07:03:43.659Z,7.23
2019-04-10T07:06:06.297Z,7.93
2019-04-10T07:08:27.485Z,8.33
2019-04-10T07:11:03.363Z,8.00
2019-04-10T07:13:24.293Z,7.43
2019-04-10T07:15:54.412Z,8.10
2019-04-10T07:18:21.986Z,8.53
2019-04-10T07:20:50.388Z,8.37
2019-04-10T07:23:22.451Z,7.47
2019-04-10T07:25:48.403Z,7.80
2019-04-10T07:28:15.985Z,7.50
2019-04-10T07:30:43.588Z,8.27
2019-04-10T07:33:14.866Z,7.73
2019-04-10T07:35:40.311Z,7.33
2019-04-10T07:38:07.808Z,8.33
2019-04-10T07:40:36.795Z,7.83
2019-04-10T07:43:06.446Z,7.73
2019-04-10T07:45:35.466Z,7.67
2019-04-10T07:48:03.139Z,8.30
2019-04-10T07:50:30.466Z,8.27
2019-04-10T07:52:57.930Z,7.43
2019-04-10T07:55:25.462Z,7.57
2019-04-10T07:57:53.225Z,7.23
2019-04-10T08:00:20.698Z,7.97
2019-04-10T08:02:49.133Z,7.77
2019-04-10T08:05:16.767Z,6.37
2019-04-10T08:07:45.163Z,7.93
2019-04-10T08:10:12.953Z,7.43
2019-04-10T08:12:47.762Z,8.47
2019-04-10T08:15:11.796Z,7.17
2019-04-10T08:17:39.285Z,6.47
2019-04-10T08:20:07.804Z,7.37
2019-04-10T08:22:35.428Z,7.40
2019-04-10T08:25:02.854Z,7.07
2019-04-10T08:27:30.328Z,7.30
2019-04-10T08:29:59.006Z,7.03
2019-04-10T08:32:26.792Z,6.27
2019-04-10T08:34:54.207Z,6.70
2019-04-10T08:37:21.720Z,6.63
2019-04-10T08:39:50.883Z,6.30
2019-04-10T08:42:18.942Z,6.93
2019-04-10T08:44:46.657Z,6.57
2019-04-10T08:47:15.033Z,7.40
2019-04-10T08:49:43.256Z,6.13
2019-04-10T08:52:10.784Z,7.27
2019-04-10T08:54:38.427Z,6.63
2019-04-10T08:57:05.915Z,5.93
2019-04-10T09:02:09.455Z,6.30
2019-04-10T09:04:37.043Z,6.90
2019-04-10T09:07:05.731Z,6.50
2019-04-10T09:09:35.494Z,7.17
2019-04-10T09:12:03.020Z,5.70
2019-04-10T09:14:32.942Z,5.93
2019-04-10T09:17:00.768Z,6.60
2019-04-10T09:19:28.258Z,5.53
2019-04-10T09:21:55.705Z,6.77
2019-04-10T09:24:23.754Z,5.93
2019-04-10T09:26:51.377Z,6.53
2019-04-10T09:29:21.432Z,6.20
2019-04-10T09:31:48.952Z,6.30
2019-04-10T09:34:16.428Z,6.90
2019-04-10T09:36:44.467Z,5.20
2019-04-10T09:39:15.375Z,6.33
2019-04-10T09:41:43.892Z,6.57
2019-04-10T09:44:12.372Z,5.80
2019-04-10T09:46:42.883Z,5.97
2019-04-10T09:49:12.392Z,6.13
2019-04-10T09:51:40.382Z,6.37
2019-04-10T09:54:10.139Z,7.00
2019-04-10T09:56:38.570Z,6.90
2019-04-10T09:59:06.059Z,6.33
2019-04-10T10:04:15.705Z,6.80
2019-04-10T10:06:43.291Z,6.40
2019-04-10T10:09:10.679Z,5.80
2019-04-10T10:11:38.615Z,6.57
2019-04-10T10:14:06.220Z,5.90
2019-04-10T10:16:35.830Z,5.57
2019-04-10T10:19:03.666Z,7.23
2019-04-10T10:21:31.052Z,6.70
2019-04-10T10:23:58.483Z,6.47
2019-04-10T10:26:26.105Z,6.60
2019-04-10T10:28:54.596Z,6.90
2019-04-10T10:31:22.203Z,6.97
2019-04-10T10:33:50.138Z,6.87
2019-04-10T10:36:17.868Z,6.67
2019-04-10T10:38:45.483Z,6.17
2019-04-10T10:41:13.073Z,7.40
2019-04-10T10:43:40.507Z,7.50
2019-04-10T10:46:07.976Z,6.67
2019-04-10T10:48:37.919Z,6.30
2019-04-10T10:51:06.690Z,6.80
2019-04-10T10:53:37.101Z,7.47
2019-04-10T10:56:04.583Z,7.87
2019-04-10T10:58:32.161Z,7.47
2019-04-10T11:00:59.892Z,7.30
2019-04-10T11:03:27.346Z,7.07
2019-04-10T11:05:55.906Z,6.37
2019-04-10T11:08:24.064Z,7.23
2019-04-10T11:13:20.888Z,8.07
2019-04-10T11:15:48.552Z,7.80
2019-04-10T11:18:19.305Z,7.60
2019-04-10T11:20:48.356Z,7.43
2019-04-10T11:23:17.888Z,7.33
2019-04-10T11:25:46.484Z,7.57
2019-04-10T11:28:16.393Z,8.00
2019-04-10T11:30:44.938Z,7.57
2019-04-10T11:33:12.520Z,7.17
2019-04-10T11:35:41.108Z,7.33
2019-04-10T11:38:08.860Z,7.53
2019-04-10T11:40:36.530Z,7.23
2019-04-10T11:43:05.445Z,7.37
2019-04-10T11:45:41.360Z,7.40
2019-04-10T11:48:04.737Z,7.43
2019-04-10T11:50:34.732Z,8.13
2019-04-10T11:53:06.801Z,7.80
2019-04-10T11:55:43.050Z,7.60
2019-04-10T11:58:05.355Z,10.83
2019-04-10T12:00:45.422Z,7.37
2019-04-10T12:03:10.034Z,7.43
2019-04-10T12:05:38.640Z,7.30
2019-04-10T12:08:33.540Z,8.50
2019-04-10T12:13:06.540Z,7.93
2019-04-10T12:15:34.511Z,8.20
2019-04-10T12:18:18.306Z,7.50
2019-04-10T12:20:45.719Z,8.37
2019-04-10T12:23:13.153Z,8.53
2019-04-10T12:25:40.632Z,7.73
2019-04-10T12:28:08.079Z,7.83
2019-04-10T12:30:35.494Z,8.73
2019-04-10T12:33:03.249Z,8.43
2019-04-10T12:35:31.716Z,8.57
2019-04-10T12:38:02.822Z,7.70
2019-04-10T12:40:28.785Z,8.07
2019-04-10T12:42:56.994Z,8.63
2019-04-10T12:45:24.438Z,8.20
2019-04-10T12:47:52.441Z,8.03
2019-04-10T12:50:20.402Z,7.90
2019-04-10T12:52:48.004Z,8.00
2019-04-10T12:55:16.614Z,7.70
2019-04-10T12:57:44.003Z,7.83
2019-04-10T13:00:13.906Z,8.07
2019-04-10T13:02:41.339Z,8.03
2019-04-10T13:05:09.172Z,8.37
2019-04-10T13:07:37.758Z,7.50
2019-04-10T13:10:49.783Z,7.50
2019-04-10T13:13:17.863Z,7.80
2019-04-10T13:15:46.320Z,8.20
2019-04-10T13:18:14.357Z,7.73
2019-04-10T13:20:42.179Z,8.43
2019-04-10T13:26:09.020Z,7.67
2019-04-10T13:28:36.407Z,8.33
2019-04-10T13:31:05.490Z,8.83
2019-04-10T13:33:32.997Z,8.70
2019-04-10T13:36:00.431Z,8.40
2019-04-10T13:38:32.542Z,8.77
2019-04-10T13:40:58.053Z,8.47
2019-04-10T13:43:25.911Z,9.07
2019-04-10T13:45:54.471Z,8.93
2019-04-10T13:48:22.895Z,9.27
2019-04-10T13:50:52.166Z,8.27
2019-04-10T13:53:19.895Z,8.63
2019-04-10T13:55:48.513Z,9.67
2019-04-10T13:58:17.193Z,9.00
2019-04-10T14:00:49.505Z,9.27
2019-04-10T14:03:18.403Z,8.60
2019-04-10T14:05:47.629Z,9.57
2019-04-10T14:10:48.756Z,9.07
2019-04-10T14:13:17.775Z,8.43
2019-04-10T14:15:46.259Z,7.77
2019-04-10T14:18:14.425Z,8.30
2019-04-10T14:20:43.727Z,8.70
2019-04-10T14:23:26.580Z,7.90
2019-04-10T14:26:11.888Z,8.23
2019-04-10T14:28:39.337Z,8.63
2019-04-10T14:31:14.193Z,9.43
2019-04-10T14:33:42.159Z,9.30
2019-04-10T14:36:09.700Z,8.20
2019-04-10T14:38:37.336Z,9.13
2019-04-10T14:41:05.295Z,9.43
2019-04-10T14:43:32.864Z,8.90
2019-04-10T14:46:00.946Z,8.20
2019-04-10T14:48:28.487Z,9.73
2019-04-10T14:50:57.816Z,8.97
2019-04-10T14:56:21.998Z,8.30
2019-04-10T14:58:50.717Z,9.07
2019-04-10T15:01:18.278Z,8.90
2019-04-10T15:03:46.707Z,9.10
2019-04-10T15:06:15.411Z,9.93
2019-04-10T15:08:43.906Z,9.00
2019-04-10T15:11:11.398Z,9.50
2019-04-10T15:13:40.209Z,8.93
2019-04-10T15:16:09.125Z,9.50
2019-04-10T15:18:37.213Z,8.70
2019-04-10T15:21:04.866Z,8.73
2019-04-10T15:23:32.362Z,9.33
2019-04-10T15:25:59.716Z,9.20
2019-04-10T15:28:27.472Z,8.67
2019-04-10T15:30:55.130Z,9.03
2019-04-10T15:33:22.582Z,8.63
2019-04-10T15:35:51.233Z,8.77
2019-04-10T15:38:18.580Z,8.40
2019-04-10T15:40:46.235Z,8.90
2019-04-10T15:43:13.677Z,9.27
2019-04-10T15:45:41.133Z,8.20
2019-04-10T15:48:08.548Z,8.17
2019-04-10T15:50:36.093Z,8.63
2019-04-10T15:53:04.101Z,8.30
2019-04-10T15:55:32.315Z,8.13
2019-04-10T15:58:02.300Z,7.87
2019-04-10T16:00:29.469Z,8.17
2019-04-10T16:02:57.341Z,8.33
2019-04-10T16:05:25.768Z,8.40
2019-04-10T16:07:53.369Z,8.23
2019-04-10T16:10:39.324Z,8.00
2019-04-10T16:13:16.551Z,7.87
2019-04-10T16:15:45.018Z,7.97
2019-04-10T16:18:18.951Z,8.73
2019-04-10T16:20:47.292Z,6.83
2019-04-10T16:23:24.078Z,7.53
2019-04-10T16:25:52.713Z,7.97
2019-04-10T16:28:24.338Z,7.73
2019-04-10T16:30:53.563Z,7.80
2019-04-10T16:33:21.133Z,8.07
2019-04-10T16:35:48.903Z,7.40
2019-04-10T16:38:16.445Z,7.13
2019-04-10T16:40:43.920Z,7.27
2019-04-10T16:45:55.442Z,7.63
2019-04-10T16:48:24.659Z,7.40
2019-04-10T16:50:52.135Z,6.70
2019-04-10T16:53:20.129Z,7.37
2019-04-10T16:55:47.681Z,6.27
2019-04-10T16:58:15.911Z,7.43
2019-04-10T17:00:43.463Z,7.33
2019-04-10T17:03:11.568Z,7.13
2019-04-10T17:05:41.868Z,6.80
2019-04-10T17:08:09.827Z,6.17
2019-04-10T17:10:39.118Z,6.27
2019-04-10T17:13:07.483Z,5.53
2019-04-10T17:15:36.355Z,6.23
2019-04-10T17:18:04.000Z,5.70
2019-04-10T17:20:32.827Z,5.80
2019-04-10T17:23:00.655Z,5.90
2019-04-10T17:25:28.472Z,4.97
2019-04-10T17:27:56.360Z,5.67
2019-04-10T17:30:23.939Z,5.27
2019-04-10T17:32:52.878Z,5.30
2019-04-10T17:35:21.329Z,5.40
2019-04-10T17:37:49.902Z,5.33
2019-04-10T17:40:31.137Z,4.97
2019-04-10T17:42:48.320Z,4.73
2019-04-10T17:45:16.292Z,4.37
2019-04-10T17:47:45.165Z,4.80
2019-04-10T17:50:16.120Z,5.17
2019-04-10T17:52:45.024Z,4.67
2019-04-10T17:55:13.498Z,4.83
2019-04-10T17:57:44.152Z,4.03
2019-04-10T18:00:36.074Z,4.17
2019-04-10T18:03:03.532Z,4.37
2019-04-10T18:05:30.955Z,4.53
2019-04-10T18:07:58.687Z,4.73
2019-04-10T18:10:30.452Z,4.20
2019-04-10T18:12:56.608Z,4.53
2019-04-10T18:15:24.194Z,4.80
2019-04-10T18:17:51.588Z,4.47
2019-04-10T18:20:19.938Z,4.13
2019-04-10T18:25:34.697Z,4.77
2019-04-10T18:28:03.424Z,4.87
2019-04-10T18:30:34.565Z,4.50
2019-04-10T18:33:03.821Z,5.10
2019-04-10T18:35:33.576Z,4.43
2019-04-10T18:38:01.495Z,4.10
2019-04-10T18:40:30.000Z,4.90
2019-04-10T18:42:58.865Z,4.67
2019-04-10T18:45:27.926Z,5.10
2019-04-10T18:47:56.411Z,5.03
2019-04-10T18:50:24.436Z,4.63
2019-04-10T18:52:52.100Z,4.73
2019-04-10T18:55:20.397Z,5.17
2019-04-10T18:57:47.966Z,5.03
2019-04-10T19:00:38.569Z,5.23
2019-04-10T19:03:25.556Z,4.40
2019-04-10T19:05:56.934Z,4.53
2019-04-10T19:08:24.312Z,4.80
2019-04-10T19:10:53.169Z,4.70
2019-04-10T19:13:20.988Z,4.23
2019-04-10T19:15:48.951Z,4.63
2019-04-10T19:18:16.807Z,4.17
2019-04-10T19:20:44.209Z,4.10
2019-04-10T19:23:12.927Z,3.93
2019-04-10T19:25:40.881Z,4.93
2019-04-10T19:28:08.658Z,4.07
2019-04-10T19:30:39.449Z,3.90
2019-04-10T19:33:07.986Z,3.93
2019-04-10T19:35:35.574Z,4.23
2019-04-10T19:38:03.139Z,4.47
2019-04-10T19:40:31.903Z,4.60
2019-04-10T19:42:59.996Z,4.80
2019-04-10T19:45:28.433Z,4.10
2019-04-10T19:47:56.977Z,4.07
2019-04-10T19:50:25.518Z,3.97
2019-04-10T19:52:53.070Z,3.77
2019-04-10T19:55:21.854Z,3.97
2019-04-10T19:57:49.869Z,4.13
2019-04-10T20:00:20.112Z,4.33
2019-04-10T20:02:47.461Z,3.80
2019-04-10T20:05:15.026Z,4.00
2019-04-10T20:07:43.073Z,4.20
2019-04-10T20:10:12.870Z,4.33
2019-04-10T20:12:40.483Z,3.77
2019-04-10T20:15:08.022Z,3.60
2019-04-10T20:17:35.766Z,3.57
2019-04-10T20:20:04.656Z,3.77
2019-04-10T20:22:32.719Z,3.00
2019-04-10T20:25:00.178Z,3.80
2019-04-10T20:27:27.817Z,3.70
2019-04-10T20:29:55.266Z,3.67
2019-04-10T20:32:22.841Z,3.53
2019-04-10T20:34:50.414Z,2.70
2019-04-10T20:37:18.616Z,3.33
2019-04-10T20:39:46.062Z,2.73
2019-04-10T20:42:14.006Z,3.27
2019-04-10T20:44:41.469Z,3.13
2019-04-10T20:47:08.877Z,3.73
2019-04-10T20:49:36.486Z,3.23
2019-04-10T20:52:04.225Z,2.87
2019-04-10T20:54:32.872Z,2.90
2019-04-10T20:57:01.183Z,3.40
2019-04-10T20:59:28.783Z,3.07
2019-04-10T21:01:56.229Z,3.20
2019-04-10T21:04:23.676Z,3.37
2019-04-10T21:06:51.150Z,3.17
2019-04-10T21:09:19.131Z,2.93
2019-04-10T21:11:58.049Z,3.23
2019-04-10T21:14:16.078Z,2.93
2019-04-10T21:16:44.299Z,2.70
2019-04-10T21:19:12.804Z,2.53
2019-04-10T21:21:41.372Z,2.57
2019-04-10T21:24:09.256Z,2.23
2019-04-10T21:26:36.900Z,2.47
2019-04-10T21:29:07.024Z,2.17
2019-04-10T21:32:01.083Z,2.17
2019-04-10T21:34:35.442Z,2.60
2019-04-10T21:37:03.812Z,2.40
2019-04-10T21:39:31.794Z,2.67
2019-04-10T21:42:10.144Z,2.30
2019-04-10T21:44:28.952Z,2.03
2019-04-10T21:46:57.178Z,2.00
2019-04-10T21:49:24.639Z,2.10
2019-04-10T21:51:51.991Z,1.53
2019-04-10T21:54:20.451Z,2.20
2019-04-10T21:56:49.274Z,2.70
2019-04-10T21:59:16.896Z,1.97
2019-04-10T22:01:44.440Z,2.30
2019-04-10T22:04:11.870Z,1.93
2019-04-10T22:07:16.579Z,2.30
2019-04-10T22:10:02.068Z,2.10
2019-04-10T22:12:33.024Z,2.37
2019-04-10T22:15:00.185Z,2.10
2019-04-10T22:17:27.855Z,2.57
2019-04-10T22:19:55.282Z,1.83
2019-04-10T22:22:22.683Z,2.23
2019-04-10T22:24:50.574Z,2.43
2019-04-10T22:27:19.029Z,2.20
2019-04-10T22:29:46.858Z,1.97
2019-04-10T22:32:14.384Z,2.43
2019-04-10T22:34:42.829Z,1.67
2019-04-10T22:37:10.156Z,2.37
2019-04-10T22:39:37.562Z,2.07
2019-04-10T22:42:05.524Z,2.17
2019-04-10T22:44:39.199Z,2.10
2019-04-10T22:47:02.994Z,2.00
2019-04-10T22:49:30.771Z,1.70
2019-04-10T22:51:58.434Z,1.97
2019-04-10T22:54:26.262Z,2.83
2019-04-10T22:56:54.456Z,2.30
2019-04-10T22:59:22.180Z,1.87
2019-04-10T23:02:01.382Z,2.30
2019-04-10T23:04:20.081Z,2.10
2019-04-10T23:06:49.716Z,2.40
2019-04-10T23:09:17.076Z,1.60
2019-04-10T23:11:46.317Z,2.07
2019-04-10T23:14:14.385Z,2.00
2019-04-10T23:16:42.143Z,2.00
2019-04-10T23:19:09.955Z,2.00
2019-04-10T23:21:38.641Z,1.97
2019-04-10T23:24:07.476Z,2.00
2019-04-10T23:26:35.371Z,2.27
2019-04-10T23:29:03.976Z,1.73
2019-04-10T23:31:31.915Z,1.63
2019-04-10T23:34:00.652Z,1.90
2019-04-10T23:36:28.173Z,2.17
2019-04-10T23:38:55.913Z,2.50
2019-04-10T23:41:23.410Z,1.90
2019-04-10T23:43:51.525Z,1.50
2019-04-10T23:46:20.052Z,1.80
2019-04-10T23:48:48.841Z,1.70
2019-04-10T23:51:16.441Z,1.70
2019-04-10T23:53:44.680Z,1.07
2019-04-10T23:56:13.511Z,1.83
2019-04-10T23:58:43.022Z,1.90
